Time;durP1;ratioP1;P1;durP2;ratioP2;P2;SDS_P1;SDS_P2;PMS_P1;PMS_P2;Temp;Humidity;BMP_temperature;BMP_pressure;BME280_temperature;BME280_humidity;BME280_pressure;Samples;Min_cycle;Max_cycle;Signal;HPM_P1;HPM_P2
2022/02/25 00:01:44;;;;;;;10.07;3.58;;;;;;;2.29;100.00;101567.28;5265292;28;20025;-74
2022/02/25 00:04:15;;;;;;;9.20;3.00;;;;;;;2.28;100.00;101578.53;5266629;28;20025;-77
2022/02/25 00:06:46;;;;;;;7.85;3.22;;;;;;;2.27;100.00;101581.16;5264724;28;20025;-73
2022/02/25 00:09:17;;;;;;;7.22;3.05;;;;;;;2.28;100.00;101578.53;5263686;28;20111;-71
2022/02/25 00:11:49;;;;;;;7.65;2.90;;;;;;;2.31;100.00;101580.13;5265113;28;20045;-72
2022/02/25 00:14:20;;;;;;;8.43;3.00;;;;;;;2.23;100.00;101584.75;5266236;28;20031;-74
2022/02/25 00:16:51;;;;;;;11.43;2.95;;;;;;;2.30;100.00;101584.47;5262950;28;20107;-72
2022/02/25 00:19:24;;;;;;;5.32;2.50;;;;;;;2.32;100.00;101581.84;5269289;28;20024;-71
2022/02/25 00:21:55;;;;;;;8.88;3.03;;;;;;;2.31;100.00;101585.31;5266628;28;20024;-71
2022/02/25 00:24:26;;;;;;;10.27;3.97;;;;;;;2.30;100.00;101588.78;5261265;28;20436;-76
2022/02/25 00:26:57;;;;;;;12.15;3.05;;;;;;;2.32;100.00;101597.34;5264774;28;20020;-75
2022/02/25 00:29:29;;;;;;;9.80;3.10;;;;;;;2.33;100.00;101606.78;5263119;28;20118;-74
2022/02/25 00:32:00;;;;;;;6.85;3.03;;;;;;;2.36;100.00;101604.91;5262891;28;20043;-73
2022/02/25 00:34:32;;;;;;;8.40;2.72;;;;;;;2.37;100.00;101614.34;5265164;28;20025;-74
2022/02/25 00:37:03;;;;;;;7.93;2.30;;;;;;;2.35;100.00;101615.31;5263803;28;20064;-73
2022/02/25 00:39:34;;;;;;;6.95;2.53;;;;;;;2.36;100.00;101625.63;5264366;28;20028;-72
2022/02/25 00:42:10;;;;;;;9.70;2.72;;;;;;;2.41;100.00;101623.69;5265426;28;20028;-72
2022/02/25 00:44:41;;;;;;;9.02;2.67;;;;;;;2.42;100.00;101630.56;5264794;28;20028;-72
2022/02/25 00:47:13;;;;;;;12.88;3.17;;;;;;;2.46;100.00;101635.59;5268033;28;20397;-73
2022/02/25 00:49:44;;;;;;;9.75;2.60;;;;;;;2.54;100.00;101633.53;5260375;28;20036;-75
2022/02/25 00:52:16;;;;;;;7.55;2.65;;;;;;;2.55;100.00;101630.91;5261089;28;20029;-74
2022/02/25 00:54:47;;;;;;;9.70;2.65;;;;;;;2.55;100.00;101635.25;5266806;28;20025;-73
2022/02/25 00:57:18;;;;;;;9.35;3.15;;;;;;;2.58;100.00;101637.72;5266538;28;20032;-74
2022/02/25 00:59:49;;;;;;;8.07;2.45;;;;;;;2.62;100.00;101634.13;5265096;28;20047;-73
2022/02/25 01:02:21;;;;;;;9.82;2.92;;;;;;;2.61;100.00;101627.25;5264310;28;20186;-73
2022/02/25 01:04:52;;;;;;;7.68;2.65;;;;;;;2.63;100.00;101640.97;5263444;28;20037;-73
2022/02/25 01:07:23;;;;;;;7.22;2.20;;;;;;;2.62;100.00;101634.97;5263247;28;20025;-73
2022/02/25 01:09:54;;;;;;;7.93;3.08;;;;;;;2.60;100.00;101638.50;5263288;28;20025;-76
2022/02/25 01:12:26;;;;;;;6.18;2.20;;;;;;;2.60;100.00;101636.75;5266729;28;20083;-73
2022/02/25 01:14:57;;;;;;;5.75;2.40;;;;;;;2.57;100.00;101634.28;5262949;28;20016;-73
2022/02/25 01:17:31;;;;;;;6.57;2.70;;;;;;;2.63;100.00;101644.41;5261066;28;20043;-73
2022/02/25 01:20:04;;;;;;;7.03;2.10;;;;;;;2.63;100.00;101653.91;5264102;28;20029;-73
2022/02/25 01:22:35;;;;;;;7.05;2.20;;;;;;;2.57;100.00;101652.38;5261203;28;20094;-73
2022/02/25 01:25:07;;;;;;;8.63;2.50;;;;;;;2.57;100.00;101649.78;5263663;28;20109;-76
2022/02/25 01:27:39;;;;;;;8.50;2.25;;;;;;;2.57;100.00;101649.78;5265528;28;20051;-73
2022/02/25 01:30:11;;;;;;;15.38;2.85;;;;;;;2.55;100.00;101640.44;5266220;28;20025;-73
2022/02/25 01:32:42;;;;;;;5.18;2.35;;;;;;;2.50;100.00;101645.78;5263961;28;20041;-73
2022/02/25 01:35:13;;;;;;;7.88;2.35;;;;;;;2.54;100.00;101642.19;5263702;28;20020;-72
2022/02/25 01:37:45;;;;;;;9.57;2.28;;;;;;;2.51;100.00;101636.28;5262747;28;20055;-73
2022/02/25 01:40:16;;;;;;;6.60;2.00;;;;;;;2.49;100.00;101627.72;5260632;28;20031;-73
2022/02/25 01:42:49;;;;;;;8.30;2.53;;;;;;;2.51;100.00;101624.19;5266457;28;20473;-75
2022/02/25 01:45:21;;;;;;;;;;;;;;;2.76;100.00;101628.38;5264198;28;20033;-73
2022/02/25 01:47:52;;;;;;;7.30;2.05;;;;;;;2.44;100.00;101630.50;5263040;28;20394;-73
2022/02/25 01:50:24;;;;;;;6.43;2.22;;;;;;;2.47;100.00;101640.72;5265333;28;20039;-73
2022/02/25 01:53:03;;;;;;;7.18;2.60;;;;;;;2.47;100.00;101642.47;5263253;28;20018;-73
2022/02/25 01:55:37;;;;;;;4.55;1.73;;;;;;;2.44;100.00;101644.25;5265512;28;20023;-76
2022/02/25 01:58:08;;;;;;;9.13;2.67;;;;;;;2.39;100.00;101645.34;5263221;28;20050;-72
2022/02/25 02:00:39;;;;;;;11.18;2.78;;;;;;;2.42;100.00;101646.06;5264250;28;20025;-73
2022/02/25 02:03:10;;;;;;;10.52;2.75;;;;;;;2.38;100.00;101638.47;5263638;28;20109;-73
2022/02/25 02:05:42;;;;;;;11.35;2.60;;;;;;;2.42;100.00;101647.78;5260127;28;20029;-75
2022/02/25 02:08:13;;;;;;;10.07;2.60;;;;;;;2.44;100.00;101648.59;5263817;28;20034;-73
2022/02/25 02:10:44;;;;;;;10.05;2.80;;;;;;;2.44;100.00;101648.59;5260975;28;20412;-73
2022/02/25 02:13:16;;;;;;;10.65;2.67;;;;;;;2.38;100.00;101648.81;5264652;28;20071;-73
2022/02/25 02:15:47;;;;;;;8.20;2.45;;;;;;;2.43;100.00;101645.16;5263524;28;20067;-74
2022/02/25 02:18:18;;;;;;;8.77;2.33;;;;;;;2.44;100.00;101644.25;5259832;28;20024;-73
2022/02/25 02:20:49;;;;;;;8.52;3.20;;;;;;;2.41;100.00;101646.94;5265187;28;20474;-73
2022/02/25 02:23:21;;;;;;;12.82;2.50;;;;;;;2.42;100.00;101643.50;5265326;28;21126;-73
2022/02/25 02:25:52;;;;;;;6.47;2.58;;;;;;;2.40;100.00;101634.94;5262626;28;20040;-73
2022/02/25 02:28:27;;;;;;;7.45;2.33;;;;;;;2.38;100.00;101641.06;5264373;28;20067;-74
2022/02/25 02:30:58;;;;;;;9.80;2.78;;;;;;;2.29;100.00;101639.66;5263259;28;20029;-73
2022/02/25 02:33:30;;;;;;;10.15;3.17;;;;;;;2.26;100.00;101639.78;5264368;28;20031;-73
2022/02/25 02:36:01;;;;;;;9.50;3.08;;;;;;;2.36;100.00;101648.03;5261004;28;20020;-73
2022/02/25 02:38:33;;;;;;;10.65;2.42;;;;;;;2.35;100.00;101646.34;5265467;28;20020;-73
2022/02/25 02:41:06;;;;;;;10.40;2.25;;;;;;;2.37;100.00;101644.56;5266607;28;20083;-75
2022/02/25 02:43:37;;;;;;;9.63;2.15;;;;;;;2.34;100.00;101644.66;5257512;28;20033;-73
2022/02/25 02:46:09;;;;;;;9.48;2.90;;;;;;;2.24;100.00;101638.16;5266427;28;20025;-73
2022/02/25 02:48:42;;;;;;;11.60;2.35;;;;;;;2.33;100.00;101637.81;5262268;28;20025;-73
2022/02/25 02:51:13;;;;;;;11.65;2.30;;;;;;;2.31;100.00;101642.19;5262909;28;20024;-74
2022/02/25 02:53:44;;;;;;;13.15;2.35;;;;;;;2.31;100.00;101634.44;5266452;28;20051;-73
2022/02/25 02:56:16;;;;;;;13.23;2.45;;;;;;;2.27;100.00;101640.63;5266080;28;20025;-72
2022/02/25 02:58:55;;;;;;;11.85;2.38;;;;;;;2.29;100.00;101649.16;5266596;28;20039;-73
2022/02/25 03:01:29;;;;;;;10.05;3.05;;;;;;;2.31;100.00;101631.84;5269073;28;20056;-74
2022/02/25 03:04:01;;;;;;;9.45;3.10;;;;;;;2.34;100.00;101642.91;5267962;28;20032;-73
2022/02/25 03:06:32;;;;;;;11.02;2.05;;;;;;;2.31;100.00;101642.19;5265451;28;20035;-72
2022/02/25 03:09:04;;;;;;;11.07;2.70;;;;;;;2.30;100.00;101643.09;5265379;28;20075;-73
2022/02/25 03:11:35;;;;;;;11.70;2.85;;;;;;;2.30;100.00;101645.69;5267451;28;20057;-74
2022/02/25 03:14:06;;;;;;;10.27;2.58;;;;;;;2.24;100.00;101641.59;5267240;28;20044;-73
2022/02/25 03:16:37;;;;;;;11.27;2.38;;;;;;;2.26;100.00;101638.94;5267408;28;20389;-73
2022/02/25 03:19:09;;;;;;;7.30;2.08;;;;;;;2.30;100.00;101640.50;5270263;28;20050;-73
2022/02/25 03:21:40;;;;;;;10.25;2.75;;;;;;;2.26;100.00;101628.59;5267524;28;20028;-72
2022/02/25 03:24:11;;;;;;;11.32;2.47;;;;;;;2.20;100.00;101632.28;5266533;28;20029;-74
2022/02/25 03:26:43;;;;;;;13.93;2.42;;;;;;;2.28;100.00;101635.41;5265375;28;20025;-73
2022/02/25 03:29:14;;;;;;;9.80;2.20;;;;;;;2.28;100.00;101643.16;5266395;28;20069;-73
2022/02/25 03:31:45;;;;;;;9.70;2.15;;;;;;;2.29;100.00;101638.81;5267821;28;20166;-75
2022/02/25 03:34:16;;;;;;;9.65;2.63;;;;;;;2.26;100.00;101641.53;5266665;28;20039;-73
2022/02/25 03:36:48;;;;;;;12.98;2.53;;;;;;;2.22;100.00;101634.78;5264794;28;20405;-76
2022/02/25 03:39:19;;;;;;;15.50;2.40;;;;;;;2.20;100.00;101634.84;5263738;28;20075;-72
2022/02/25 03:41:50;;;;;;;13.38;2.42;;;;;;;2.17;100.00;101633.22;5265707;28;20039;-72
2022/02/25 03:44:22;;;;;;;18.73;2.50;;;;;;;2.19;100.00;101641.75;5264151;28;20040;-75
2022/02/25 03:46:53;;;;;;;10.50;2.65;;;;;;;2.16;100.00;101639.28;5265274;28;20064;-72
2022/02/25 03:49:25;;;;;;;11.95;2.88;;;;;;;2.10;100.00;101620.56;5266709;28;20037;-72
2022/02/25 03:51:57;;;;;;;11.63;2.28;;;;;;;2.14;100.00;101641.06;5278325;28;20122;-73
2022/02/25 03:54:28;;;;;;;12.27;2.65;;;;;;;2.17;100.00;101638.38;5262869;28;20029;-72
2022/02/25 03:56:59;;;;;;;13.23;2.20;;;;;;;2.19;100.00;101639.16;5269191;28;20466;-76
2022/02/25 03:59:30;;;;;;;10.68;2.40;;;;;;;2.18;100.00;101636.63;5267624;28;20405;-73
2022/02/25 04:02:03;;;;;;;9.73;2.35;;;;;;;2.20;100.00;101634.84;5268623;28;20055;-72
2022/02/25 04:04:34;;;;;;;10.40;2.70;;;;;;;2.23;100.00;101642.47;5263624;28;20040;-72
2022/02/25 04:07:06;;;;;;;10.65;2.67;;;;;;;2.22;100.00;101638.22;5265217;28;20474;-72
2022/02/25 04:09:37;;;;;;;7.90;2.22;;;;;;;2.22;100.00;101634.78;5267550;28;20098;-72
2022/02/25 04:12:09;;;;;;;11.02;2.35;;;;;;;2.25;100.00;101629.50;5267061;28;20076;-72
2022/02/25 04:14:41;;;;;;;10.18;2.13;;;;;;;2.24;100.00;101633.00;5267150;28;20461;-75
2022/02/25 04:17:12;;;;;;;12.82;2.67;;;;;;;2.26;100.00;101633.78;5266305;28;20037;-73
2022/02/25 04:19:43;;;;;;;12.60;2.53;;;;;;;2.21;100.00;101625.34;5261591;28;20123;-75
2022/02/25 04:22:14;;;;;;;8.10;2.25;;;;;;;2.23;100.00;101628.69;5267658;28;20037;-72
2022/02/25 04:24:46;;;;;;;13.30;2.58;;;;;;;2.24;100.00;101622.66;5269606;28;20032;-73
2022/02/25 04:27:17;;;;;;;10.02;2.40;;;;;;;2.17;100.00;101622.88;5263948;28;20029;-73
2022/02/25 04:29:48;;;;;;;9.82;2.00;;;;;;;2.25;100.00;101637.25;5266873;28;20024;-72
2022/02/25 04:32:20;;;;;;;14.13;2.35;;;;;;;2.26;100.00;101632.03;5266778;28;20500;-73
2022/02/25 04:34:52;;;;;;;16.55;2.92;;;;;;;2.24;100.00;101636.41;5262735;28;20564;-73
2022/02/25 04:37:23;;;;;;;15.85;2.83;;;;;;;2.19;100.00;101627.97;5261238;28;20068;-72
2022/02/25 04:39:54;;;;;;;9.82;2.53;;;;;;;2.25;100.00;101632.09;5266116;28;20025;-73
2022/02/25 04:42:26;;;;;;;10.43;2.45;;;;;;;2.24;100.00;101638.16;5264048;28;20028;-73
2022/02/25 04:44:57;;;;;;;15.32;2.22;;;;;;;2.23;100.00;101634.72;5265903;28;20405;-73
2022/02/25 04:47:29;;;;;;;15.27;2.60;;;;;;;2.24;100.00;101636.41;5262833;28;20036;-73
2022/02/25 04:50:00;;;;;;;10.70;2.35;;;;;;;2.14;100.00;101633.31;5266917;28;20037;-73
2022/02/25 04:52:31;;;;;;;10.00;2.40;;;;;;;2.28;100.00;101647.50;5265016;28;20044;-72
2022/02/25 04:55:04;;;;;;;12.55;1.95;;;;;;;2.25;100.00;101637.25;5264607;28;20102;-73
2022/02/25 04:57:35;;;;;;;13.93;2.85;;;;;;;2.22;100.00;101648.53;5263460;28;20020;-74
2022/02/25 05:00:11;;;;;;;13.20;2.38;;;;;;;2.24;100.00;101651.94;5266484;28;20039;-73
2022/02/25 05:02:44;;;;;;;10.80;2.65;;;;;;;2.19;100.00;101659.84;5262206;28;20090;-72
2022/02/25 05:05:16;;;;;;;9.48;2.33;;;;;;;2.26;100.00;101664.78;5264817;28;20068;-73
2022/02/25 05:07:47;;;;;;;11.10;2.55;;;;;;;2.30;100.00;101663.78;5263479;28;20052;-73
2022/02/25 05:10:21;;;;;;;9.90;2.42;;;;;;;2.23;100.00;101650.22;5261918;28;20523;-73
2022/02/25 05:12:53;;;;;;;12.70;2.75;;;;;;;2.23;100.00;101646.81;5266152;28;20060;-73
2022/02/25 05:21:05;;;;;;;11.50;2.33;;;;;;;2.31;100.00;101647.34;5262803;28;20588;-73
2022/02/25 05:23:36;;;;;;;15.65;3.20;;;;;;;2.34;100.00;101648.09;5261867;28;20032;-73
2022/02/25 05:26:08;;;;;;;17.13;3.00;;;;;;;2.37;100.00;101647.13;5266739;28;20111;-73
2022/02/25 05:28:39;;;;;;;10.27;2.67;;;;;;;2.39;100.00;101648.78;5263607;28;20038;-73
2022/02/25 05:31:10;;;;;;;11.05;2.60;;;;;;;2.42;100.00;101646.06;5262708;28;20020;-73
2022/02/25 05:33:42;;;;;;;13.10;3.08;;;;;;;2.44;100.00;101646.00;5264792;28;20043;-73
2022/02/25 05:36:14;;;;;;;14.35;2.53;;;;;;;2.42;100.00;101634.88;5263847;28;20057;-73
2022/02/25 05:38:48;;;;;;;10.55;2.10;;;;;;;2.50;100.00;101648.38;5263644;28;20036;-73
2022/02/25 05:41:20;;;;;;;10.60;2.83;;;;;;;2.55;100.00;101655.94;5260635;28;20033;-73
2022/02/25 05:43:51;;;;;;;14.98;3.35;;;;;;;2.57;100.00;101656.72;5265667;28;20088;-73
2022/02/25 05:46:22;;;;;;;14.25;2.65;;;;;;;2.64;100.00;101661.59;5263479;28;20036;-73
2022/02/25 05:48:54;;;;;;;14.48;2.47;;;;;;;2.60;100.00;101661.78;5262457;28;20066;-73
2022/02/25 05:51:25;;;;;;;12.90;2.67;;;;;;;2.67;100.00;101673.56;5266479;28;20119;-73
2022/02/25 05:53:57;;;;;;;14.57;2.70;;;;;;;2.69;100.00;101661.44;5262567;28;20043;-73
2022/02/25 05:56:28;;;;;;;13.45;2.83;;;;;;;2.67;100.00;101661.47;5264885;28;20017;-73
2022/02/25 05:58:59;;;;;;;14.35;3.35;;;;;;;2.75;100.00;101665.53;5264266;28;20029;-73
2022/02/25 06:01:31;;;;;;;10.88;2.45;;;;;;;2.76;100.00;101672.38;5260887;28;20375;-73
2022/02/25 06:04:02;;;;;;;13.25;3.28;;;;;;;2.78;100.00;101679.19;5265897;28;20035;-73
2022/02/25 06:06:34;;;;;;;13.60;3.08;;;;;;;2.80;100.00;101679.09;5265292;28;20029;-73
2022/02/25 06:09:06;;;;;;;17.60;3.30;;;;;;;2.79;100.00;101680.03;5265433;28;20452;-73
2022/02/25 06:11:37;;;;;;;9.70;2.13;;;;;;;2.81;100.00;101692.00;5261002;28;20057;-73
2022/02/25 06:14:08;;;;;;;14.32;2.88;;;;;;;2.82;100.00;101698.03;5258745;28;20074;-73
2022/02/25 06:16:39;;;;;;;18.40;3.35;;;;;;;2.81;100.00;101693.75;5264011;28;20013;-73
2022/02/25 06:19:11;;;;;;;13.95;2.75;;;;;;;2.92;100.00;101704.53;5261431;28;20101;-73
2022/02/25 06:21:42;;;;;;;14.43;2.58;;;;;;;2.97;100.00;101709.53;5264858;28;20033;-73
2022/02/25 06:24:13;;;;;;;20.60;3.45;;;;;;;2.92;100.00;101696.78;5261982;28;20021;-73
2022/02/25 06:26:45;;;;;;;11.30;2.42;;;;;;;2.98;100.00;101700.84;5262239;28;20084;-73
2022/02/25 06:29:16;;;;;;;12.48;2.58;;;;;;;2.97;100.00;101700.00;5264992;28;20032;-73
2022/02/25 06:31:47;;;;;;;13.38;3.00;;;;;;;2.98;100.00;101701.69;5263382;28;20078;-73
2022/02/25 06:34:19;;;;;;;11.20;2.60;;;;;;;3.00;100.00;101712.84;5262930;28;20478;-74
2022/02/25 06:36:50;;;;;;;15.13;2.85;;;;;;;2.92;100.00;101700.19;5261042;28;20047;-74
2022/02/25 06:39:22;;;;;;;15.70;2.85;;;;;;;2.99;100.00;101712.88;5263053;28;20033;-74
2022/02/25 06:41:53;;;;;;;13.55;3.58;;;;;;;2.97;100.00;101714.69;5263910;28;20521;-73
2022/02/25 06:44:24;;;;;;;14.82;3.58;;;;;;;2.98;100.00;101714.63;5266065;28;20052;-74
2022/02/25 06:46:55;;;;;;;11.38;2.70;;;;;;;2.92;100.00;101712.31;5261007;28;20491;-74
2022/02/25 06:49:27;;;;;;;19.23;3.10;;;;;;;3.01;100.00;101714.50;5264217;28;20039;-73
2022/02/25 06:51:58;;;;;;;16.23;3.17;;;;;;;2.99;100.00;101718.91;5260802;28;20470;-74
2022/02/25 06:54:30;;;;;;;16.88;3.28;;;;;;;3.04;100.00;101724.75;5259587;28;20389;-74
2022/02/25 06:57:01;;;;;;;12.30;2.63;;;;;;;3.03;100.00;101730.84;5264304;28;20116;-73
2022/02/25 06:59:32;;;;;;;17.92;3.08;;;;;;;3.12;100.00;101752.94;5265506;28;20040;-74
2022/02/25 07:02:04;;;;;;;12.27;2.85;;;;;;;3.17;100.00;101751.00;5266898;28;20036;-73
2022/02/25 07:04:35;;;;;;;13.35;2.95;;;;;;;3.13;100.00;101750.28;5262998;28;20029;-74
2022/02/25 07:07:07;;;;;;;15.93;3.53;;;;;;;3.21;100.00;101746.53;5260048;28;20477;-73
2022/02/25 07:09:40;;;;;;;15.10;3.47;;;;;;;3.20;100.00;101752.63;5259079;28;20087;-73
2022/02/25 07:12:11;;;;;;;13.90;2.42;;;;;;;3.24;100.00;101746.44;5259569;28;20075;-73
2022/02/25 07:14:42;;;;;;;17.20;3.55;;;;;;;3.31;100.00;101750.47;5261466;28;20021;-73
2022/02/25 07:17:13;;;;;;;18.33;3.85;;;;;;;3.35;100.00;101762.38;5260636;28;20063;-73
2022/02/25 07:19:45;;;;;;;15.52;3.10;;;;;;;3.40;100.00;101763.03;5255506;28;20033;-73
2022/02/25 07:22:16;;;;;;;16.38;3.38;;;;;;;3.47;100.00;101761.03;5262509;28;20028;-73
2022/02/25 07:24:48;;;;;;;17.00;4.10;;;;;;;3.52;100.00;101769.47;5259805;28;20402;-73
2022/02/25 07:27:19;;;;;;;15.73;3.38;;;;;;;3.56;100.00;101765.84;5262746;28;20047;-73
2022/02/25 07:29:52;;;;;;;18.67;3.28;;;;;;;3.59;100.00;101766.56;5259788;28;20377;-73
2022/02/25 07:32:24;;;;;;;20.10;3.42;;;;;;;3.58;100.00;101775.25;5263901;28;20405;-73
2022/02/25 07:34:55;;;;;;;16.67;4.07;;;;;;;3.62;100.00;101784.56;5257276;28;20103;-73
2022/02/25 07:37:26;;;;;;;13.65;3.70;;;;;;;3.68;100.00;101778.31;5262282;28;20021;-73
2022/02/25 07:39:58;;;;;;;16.27;3.25;;;;;;;3.63;100.00;101780.22;5265372;28;20444;-73
2022/02/25 07:42:29;;;;;;;11.77;2.55;;;;;;;3.70;100.00;101783.44;5265559;28;20055;-73
2022/02/25 07:45:01;;;;;;;21.45;3.97;;;;;;;3.77;100.00;101793.47;5265082;28;20055;-73
2022/02/25 07:47:33;;;;;;;18.05;3.90;;;;;;;3.86;100.00;101807.81;5264154;28;20087;-73
2022/02/25 07:50:06;;;;;;;14.27;3.47;;;;;;;3.90;100.00;101793.81;5257644;28;20117;-73
2022/02/25 07:52:38;;;;;;;16.55;3.70;;;;;;;4.04;100.00;101801.84;5265534;28;20021;-73
2022/02/25 07:55:11;;;;;;;15.57;4.10;;;;;;;4.12;100.00;101802.38;5265700;28;20021;-73
2022/02/25 07:57:42;;;;;;;16.65;3.00;;;;;;;4.25;100.00;101807.88;5262875;28;20036;-73
2022/02/25 08:00:15;;;;;;;17.02;4.15;;;;;;;4.36;100.00;101821.25;5262100;28;20016;-73
2022/02/25 08:02:47;;;;;;;17.10;3.80;;;;;;;4.47;100.00;101823.38;5263115;28;20481;-73
2022/02/25 08:05:18;;;;;;;24.80;4.75;;;;;;;4.54;100.00;101840.34;5265940;28;20086;-73
2022/02/25 08:07:50;;;;;;;16.67;3.60;;;;;;;4.61;100.00;101831.38;5249936;28;20291;-73
2022/02/25 08:10:22;;;;;;;14.32;4.07;;;;;;;4.66;100.00;101833.78;5260386;28;20029;-73
2022/02/25 08:12:53;;;;;;;19.40;4.60;;;;;;;4.76;100.00;101840.25;5261391;28;20035;-73
2022/02/25 08:15:24;;;;;;;16.17;4.65;;;;;;;4.87;100.00;101850.16;5261896;28;20025;-73
2022/02/25 08:17:55;;;;;;;19.65;4.07;;;;;;;4.93;100.00;101847.28;5263074;28;20044;-73
2022/02/25 08:20:27;;;;;;;18.15;4.38;;;;;;;4.96;100.00;101844.53;5260633;28;20027;-73
2022/02/25 08:23:00;;;;;;;17.27;3.95;;;;;;;5.00;100.00;101853.91;5267445;28;20498;-73
2022/02/25 08:25:33;;;;;;;16.73;3.67;;;;;;;5.10;100.00;101864.69;5258659;28;20443;-73
2022/02/25 08:28:07;;;;;;;25.52;4.80;;;;;;;5.23;100.00;101873.63;5265603;28;20024;-73
2022/02/25 08:30:39;;;;;;;17.02;4.43;;;;;;;5.24;100.00;101867.50;5259073;28;20018;-73
2022/02/25 08:33:11;;;;;;;20.50;4.60;;;;;;;5.31;100.00;101873.28;5263813;28;20024;-73
2022/02/25 08:35:43;;;;;;;19.40;3.80;;;;;;;5.38;100.00;101874.69;5259877;28;20044;-73
2022/02/25 08:38:17;;;;;;;18.70;3.63;;;;;;;5.41;100.00;101873.69;5256085;28;20086;-73
2022/02/25 08:40:48;;;;;;;20.75;3.97;;;;;;;5.53;100.00;101881.75;5264666;28;20473;-73
2022/02/25 08:43:20;;;;;;;16.38;4.18;;;;;;;5.60;100.00;101883.13;5263036;28;20117;-73
2022/02/25 08:45:53;;;;;;;18.65;4.80;;;;;;;5.69;100.00;101899.22;5261060;28;20026;-73
2022/02/25 08:48:24;;;;;;;16.75;4.20;;;;;;;5.73;100.00;101890.38;5258067;28;20036;-73
2022/02/25 08:50:55;;;;;;;17.15;4.18;;;;;;;5.71;100.00;101894.78;5258481;28;20034;-73
2022/02/25 08:53:27;;;;;;;16.40;4.00;;;;;;;5.76;100.00;101901.47;5259516;28;20059;-73
2022/02/25 08:55:58;;;;;;;16.67;3.80;;;;;;;5.77;100.00;101903.16;5258930;28;20016;-73
2022/02/25 08:58:29;;;;;;;23.02;4.10;;;;;;;5.82;100.00;101911.56;5259897;28;20031;-73
2022/02/25 09:01:01;;;;;;;18.17;4.47;;;;;;;5.92;100.00;101912.00;5265390;28;20477;-73
2022/02/25 09:03:33;;;;;;;16.95;3.60;;;;;;;6.00;100.00;101929.84;5264492;28;20165;-73
2022/02/25 09:06:04;;;;;;;25.67;4.60;;;;;;;6.11;100.00;101924.97;5253955;28;20486;-73
2022/02/25 09:08:35;;;;;;;15.30;3.35;;;;;;;6.23;100.00;101933.94;5259589;28;20037;-74
2022/02/25 09:11:08;;;;;;;17.08;3.33;;;;;;;6.31;100.00;101945.63;5256019;28;20378;-74
2022/02/25 09:13:40;;;;;;;19.58;4.45;;;;;;;6.53;100.00;101944.56;5258586;28;20037;-74
2022/02/25 09:16:12;;;;;;;16.83;3.83;;;;;;;6.64;100.00;101941.44;5258980;28;20738;-74
2022/02/25 09:18:43;;;;;;;22.50;4.75;;;;;;;6.70;100.00;101941.94;5258398;28;20539;-74
2022/02/25 09:21:17;;;;;;;16.77;3.72;;;;;;;6.80;100.00;101947.53;5265262;28;20036;-74
2022/02/25 09:23:48;;;;;;;15.13;3.20;;;;;;;6.81;100.00;101951.81;5258556;28;20033;-74
2022/02/25 09:26:20;;;;;;;15.98;3.40;;;;;;;6.91;100.00;101955.66;5261229;28;20028;-74
2022/02/25 09:28:51;;;;;;;16.52;2.92;;;;;;;7.04;100.00;101956.69;5260522;28;20340;-74
2022/02/25 09:31:22;;;;;;;12.02;3.15;;;;;;;7.15;100.00;101960.50;5259026;28;20036;-74
2022/02/25 09:33:53;;;;;;;11.98;2.95;;;;;;;7.17;100.00;101969.94;5259010;28;20032;-74
2022/02/25 09:36:25;;;;;;;16.85;3.13;;;;;;;7.15;100.00;101957.88;5263925;28;20103;-74
2022/02/25 09:38:57;;;;;;;15.98;4.10;;;;;;;7.23;100.00;101964.38;5262632;28;20032;-73
2022/02/25 09:41:31;;;;;;;16.45;3.85;;;;;;;7.28;100.00;101979.78;5262331;28;20037;-73
2022/02/25 09:44:02;;;;;;;16.98;3.03;;;;;;;7.25;100.00;101979.94;5262354;28;20309;-74
2022/02/25 09:46:34;;;;;;;14.38;3.15;;;;;;;7.25;100.00;101983.41;5262225;28;20040;-73
2022/02/25 09:49:05;;;;;;;18.35;3.47;;;;;;;7.26;100.00;101987.69;5262590;28;20025;-73
2022/02/25 09:51:37;;;;;;;18.00;3.85;;;;;;;7.25;100.00;102006.00;5264080;28;20028;-73
2022/02/25 09:54:09;;;;;;;11.57;3.00;;;;;;;7.28;100.00;102005.88;5263772;28;20539;-73
2022/02/25 09:56:40;;;;;;;16.33;3.60;;;;;;;7.29;100.00;102003.16;5258958;28;20033;-73
2022/02/25 09:59:12;;;;;;;15.23;3.20;;;;;;;7.29;100.00;102010.97;5263956;28;20029;-73
2022/02/25 10:01:44;;;;;;;13.48;2.92;;;;;;;7.24;100.00;102015.59;5248170;28;20402;-73
2022/02/25 10:04:22;;;;;;;18.60;2.60;;;;;;;7.29;100.00;102017.97;5256815;28;20028;-73
2022/02/25 10:06:53;;;;;;;13.25;2.75;;;;;;;7.14;100.00;102019.59;5258989;28;20041;-73
2022/02/25 10:09:38;;;;;;;15.00;3.10;;;;;;;7.25;100.00;102016.44;5261975;28;20627;-73
2022/02/25 10:12:12;;;;;;;12.48;3.35;;;;;;;7.21;100.00;102039.22;5259338;28;20045;-73
2022/02/25 10:14:48;;;;;;;19.50;3.75;;;;;;;7.20;100.00;102023.66;5257515;28;20414;-73
2022/02/25 10:17:26;;;;;;;12.50;2.95;;;;;;;7.30;100.00;102043.94;5257464;28;20436;-73
2022/02/25 10:19:59;;;;;;;18.50;3.78;;;;;;;7.35;100.00;102048.94;5255065;28;20025;-73
2022/02/25 10:22:39;;;;;;;16.70;3.38;;;;;;;7.32;100.00;102052.53;5257833;28;20036;-73
2022/02/25 10:25:11;;;;;;;14.23;3.38;;;;;;;7.20;100.00;102050.56;5257693;28;20481;-73
2022/02/25 10:27:45;;;;;;;16.95;3.55;;;;;;;7.20;100.00;102052.34;5260379;28;20369;-73
2022/02/25 10:30:19;;;;;;;14.10;3.30;;;;;;;7.22;100.00;102051.31;5262150;28;20020;-73
2022/02/25 10:32:53;;;;;;;14.95;3.00;;;;;;;7.39;100.00;102042.63;5250150;28;20033;-73
2022/02/25 10:35:42;;;;;;;10.80;2.75;;;;;;;7.65;100.00;102029.97;5248819;28;20096;-73
2022/02/25 10:38:15;;;;;;;16.52;2.78;;;;;;;7.84;100.00;102050.69;5252606;28;20039;-73
2022/02/25 10:40:51;;;;;;;;;;;;;;;8.40;100.00;102063.25;5255719;28;20035;-73
2022/02/25 10:43:22;;;;;;;16.33;3.47;;;;;;;8.37;100.00;102062.56;5252745;28;19948;-73
2022/02/25 10:45:56;;;;;;;12.85;3.20;;;;;;;8.57;100.00;102051.88;5253932;28;20190;-73
2022/02/25 10:48:30;;;;;;;9.55;2.67;;;;;;;8.77;100.00;102050.72;5251907;28;20032;-73
2022/02/25 10:51:06;;;;;;;15.18;2.58;;;;;;;8.82;100.00;102055.69;5252217;28;20170;-73
2022/02/25 10:53:48;;;;;;;17.25;3.60;;;;;;;8.91;100.00;102061.22;5255431;28;20029;-73
2022/02/25 10:56:21;;;;;;;16.35;3.38;;;;;;;8.89;100.00;102067.47;5251891;28;20178;-73
2022/02/25 10:58:55;;;;;;;14.60;3.03;;;;;;;9.09;100.00;102061.94;5251651;28;20116;-73
2022/02/25 11:01:38;;;;;;;9.85;2.35;;;;;;;9.20;100.00;102072.56;5252553;28;20082;-73
2022/02/25 11:04:13;;;;;;;11.23;2.55;;;;;;;8.96;99.81;102068.78;5256528;28;20029;-73
2022/02/25 11:06:46;;;;;;;15.23;3.13;;;;;;;9.07;99.82;102076.00;5263720;28;20025;-73
2022/02/25 11:09:17;;;;;;;13.52;3.42;;;;;;;9.10;100.00;102078.44;5259260;28;20056;-73
2022/02/25 11:11:48;;;;;;;12.52;3.05;;;;;;;9.02;97.71;102074.50;5265867;28;20072;-74
2022/02/25 11:14:20;;;;;;;17.77;3.15;;;;;;;8.93;98.43;102084.66;5259479;28;20038;-74
2022/02/25 11:16:51;;;;;;;12.65;3.20;;;;;;;8.83;98.59;102089.59;5261424;28;20020;-74
2022/02/25 11:19:24;;;;;;;12.80;3.13;;;;;;;8.75;100.00;102099.59;5266838;28;20036;-74
2022/02/25 11:21:57;;;;;;;14.68;3.38;;;;;;;8.70;100.00;102084.19;5260008;28;20039;-74
2022/02/25 11:24:32;;;;;;;;;;;;;;;9.18;100.00;102094.53;5262268;28;20502;-74
2022/02/25 11:27:07;;;;;;;15.30;3.78;;;;;;;8.80;99.96;102100.19;5267099;28;20046;-74
2022/02/25 11:29:43;;;;;;;13.93;3.25;;;;;;;8.76;100.00;102099.53;5263617;28;20048;-74
2022/02/25 11:32:18;;;;;;;11.38;2.30;;;;;;;8.74;96.98;102103.16;5258143;28;20485;-75
2022/02/25 11:34:50;;;;;;;13.05;2.85;;;;;;;8.60;100.00;102093.50;5257221;28;20465;-74
2022/02/25 11:37:42;;;;;;;12.10;2.78;;;;;;;8.80;99.62;102101.97;5259088;28;20078;-74
2022/02/25 11:40:14;;;;;;;12.07;3.22;;;;;;;8.57;100.00;102096.28;5258224;28;20086;-73
2022/02/25 11:42:48;;;;;;;12.55;3.50;;;;;;;8.66;96.16;102107.97;5262146;28;20021;-75
2022/02/25 11:45:22;;;;;;;12.20;3.33;;;;;;;8.56;92.91;102106.81;5262083;28;20076;-74
2022/02/25 11:47:57;;;;;;;13.27;2.65;;;;;;;8.77;91.96;102119.50;5263039;28;20047;-74